Accueil
METAR-TAF:

METAR-TAF

Aéroports :

Wheeler, Hawaii, États-Unis

Wheeler Army Airfield

latitude: 21-29N, longitude: 158-02W, altitude: 255 m

Observation

Le bulletin a été fait il y a 58 minutes, à 12:58 UTC
Vent calme
Température 25°C
Humidité 79%
Pression 1015 hPa
Visibilité: 16.1 km
Nuages fragmentés à une hauteur de 1900 ft
Ciel couvert à une hauteur de 2600 ft

METAR: PHHI 211258Z AUTO 00000KT 10SM BKN019 OVC026 25/21 A2998 RMK AO2 SLP138 T02450213 $

Heure: 03:56 (13:56 UTC)


TAF: absent

Observations et prévisions météorologiques de plus de 4000 aéroports (messages METAR et TAF).

Les stations disponibles sont représentées par des disques jaunes et rouges sur la carte.

Passer la souris dessus pour voir le nom de la station.

Cliquer dessus pour voir les observations et prévisions météorologiques.

Pour changer de carte: cliquez sur les boutons verts avec une croix noire pour zoomer, sur le bouton vert avec un tiret pour effectuer un zoom arrière, ou sur les flèches vertes pour les cartes adjacentes.


METAR-TAF: